sensor_id;sensor_type;location;lat;lon;timestamp;pressure;altitude;pressure_sealevel;temperature;humidity
57374;BME280;43964;53.890;25.340;2023-02-18T00:01:44;1003.6;;;6.9;73.8
57374;BME280;43964;53.890;25.340;2023-02-18T00:07:08;1003.6;;;6.9;73.9
57374;BME280;43964;53.890;25.340;2023-02-18T00:11:18;1003.5;;;7;73.9
57374;BME280;43964;53.890;25.340;2023-02-18T00:16:50;1003.4;;;7;73.8
57374;BME280;43964;53.890;25.340;2023-02-18T00:21:18;1003.3;;;7.1;73.6
57374;BME280;43964;53.890;25.340;2023-02-18T00:26:50;1003.2;;;7.2;73.4
57374;BME280;43964;53.890;25.340;2023-02-18T00:31:52;1003.2;;;7.3;73.2
57374;BME280;43964;53.890;25.340;2023-02-18T00:36:24;1003.1;;;7.4;72.9
57374;BME280;43964;53.890;25.340;2023-02-18T00:41:50;1003.1;;;7.4;72.7
57374;BME280;43964;53.890;25.340;2023-02-18T00:46:32;1003;;;7.5;72.5
57374;BME280;43964;53.890;25.340;2023-02-18T00:51:36;1002.8;;;7.5;72.3
57374;BME280;43964;53.890;25.340;2023-02-18T00:57:06;1002.7;;;7.5;72.2
57374;BME280;43964;53.890;25.340;2023-02-18T01:01:30;1002.7;;;7.5;71.9
57374;BME280;43964;53.890;25.340;2023-02-18T01:06:30;1002.7;;;7.5;71.7
57374;BME280;43964;53.890;25.340;2023-02-18T01:11:18;1002.8;;;7.6;71.5
57374;BME280;43964;53.890;25.340;2023-02-18T01:16:52;1002.8;;;7.6;71.5
57374;BME280;43964;53.890;25.340;2023-02-18T01:22:08;1002.7;;;7.5;71.4
57374;BME280;43964;53.890;25.340;2023-02-18T01:27:06;1002.7;;;7.5;71.4
57374;BME280;43964;53.890;25.340;2023-02-18T01:31:18;1002.7;;;7.4;71.3
57374;BME280;43964;53.890;25.340;2023-02-18T01:36:38;1002.7;;;7.4;71.2
57374;BME280;43964;53.890;25.340;2023-02-18T01:41:44;1002.7;;;7.4;70.9
57374;BME280;43964;53.890;25.340;2023-02-18T01:46:46;1002.7;;;7.2;70.8
57374;BME280;43964;53.890;25.340;2023-02-18T01:52:08;1002.6;;;7.2;70.8
57374;BME280;43964;53.890;25.340;2023-02-18T01:57:08;1002.7;;;7.3;70.6
57374;BME280;43964;53.890;25.340;2023-02-18T02:01:18;1002.6;;;7.3;70.6
57374;BME280;43964;53.890;25.340;2023-02-18T02:06:19;1002.6;;;7.4;70.5
57374;BME280;43964;53.890;25.340;2023-02-18T02:11:51;1002.5;;;7.4;70.2
57374;BME280;43964;53.890;25.340;2023-02-18T02:17:06;1002.4;;;7.4;70.1
57374;BME280;43964;53.890;25.340;2023-02-18T02:22:19;1002.4;;;7.4;70
57374;BME280;43964;53.890;25.340;2023-02-18T02:26:31;1002.4;;;7.4;70
57374;BME280;43964;53.890;25.340;2023-02-18T02:32:01;1002.4;;;7.3;69.9
57374;BME280;43964;53.890;25.340;2023-02-18T02:36:52;1002.2;;;7.3;69.9
57374;BME280;43964;53.890;25.340;2023-02-18T02:42:08;1002.2;;;7.2;69.8
57374;BME280;43964;53.890;25.340;2023-02-18T02:46:26;1002.2;;;7.2;69.6
57374;BME280;43964;53.890;25.340;2023-02-18T02:51:19;1002.1;;;7.1;69.5
57374;BME280;43964;53.890;25.340;2023-02-18T02:57:03;1002;;;7;69.5
57374;BME280;43964;53.890;25.340;2023-02-18T03:01:50;1002;;;6.9;69.4
57374;BME280;43964;53.890;25.340;2023-02-18T03:07:13;1001.9;;;6.8;69.5
57374;BME280;43964;53.890;25.340;2023-02-18T03:11:33;1001.9;;;6.8;69.5
57374;BME280;43964;53.890;25.340;2023-02-18T03:16:21;1001.9;;;6.6;69.5
57374;BME280;43964;53.890;25.340;2023-02-18T03:21:44;1001.9;;;6.6;69.7
57374;BME280;43964;53.890;25.340;2023-02-18T03:26:32;1001.9;;;6.5;69.8
57374;BME280;43964;53.890;25.340;2023-02-18T03:32:06;1001.9;;;6.5;69.9
57374;BME280;43964;53.890;25.340;2023-02-18T03:36:46;1001.8;;;6.5;69.9
57374;BME280;43964;53.890;25.340;2023-02-18T03:41:18;1001.8;;;6.5;69.9
57374;BME280;43964;53.890;25.340;2023-02-18T03:46:44;1001.8;;;6.4;69.8
57374;BME280;43964;53.890;25.340;2023-02-18T03:51:52;1001.7;;;6.4;69.7
57374;BME280;43964;53.890;25.340;2023-02-18T03:57:08;1001.6;;;6.4;69.6
57374;BME280;43964;53.890;25.340;2023-02-18T04:01:18;1001.7;;;6.3;69.5
57374;BME280;43964;53.890;25.340;2023-02-18T04:06:32;1001.6;;;6.2;69.5
57374;BME280;43964;53.890;25.340;2023-02-18T04:11:58;1001.6;;;6.3;69.6
57374;BME280;43964;53.890;25.340;2023-02-18T04:16:32;1001.5;;;6.4;69.5
57374;BME280;43964;53.890;25.340;2023-02-18T04:22:06;1001.5;;;6.4;69.3
57374;BME280;43964;53.890;25.340;2023-02-18T04:26:44;1001.5;;;6.4;69.2
57374;BME280;43964;53.890;25.340;2023-02-18T04:31:30;1001.5;;;6.5;69.1
57374;BME280;43964;53.890;25.340;2023-02-18T04:36:58;1001.5;;;6.5;69
57374;BME280;43964;53.890;25.340;2023-02-18T04:41:44;1001.6;;;6.5;68.9
57374;BME280;43964;53.890;25.340;2023-02-18T04:47:08;1001.6;;;6.6;68.9
57374;BME280;43964;53.890;25.340;2023-02-18T04:51:18;1001.5;;;6.5;68.9
57374;BME280;43964;53.890;25.340;2023-02-18T04:56:50;1001.5;;;6.4;69
57374;BME280;43964;53.890;25.340;2023-02-18T05:01:44;1001.4;;;6.3;69.2
57374;BME280;43964;53.890;25.340;2023-02-18T05:06:52;1001.4;;;6.3;69.2
57374;BME280;43964;53.890;25.340;2023-02-18T05:12:06;1001.4;;;6.4;69.1
57374;BME280;43964;53.890;25.340;2023-02-18T05:16:30;1001.5;;;6.4;69
57374;BME280;43964;53.890;25.340;2023-02-18T05:21:18;1001.5;;;6.4;68.9
57374;BME280;43964;53.890;25.340;2023-02-18T05:27:00;1001.6;;;6.4;68.9
57374;BME280;43964;53.890;25.340;2023-02-18T05:31:18;1001.7;;;6.3;68.9
57374;BME280;43964;53.890;25.340;2023-02-18T05:37:08;1001.7;;;6.2;69
57374;BME280;43964;53.890;25.340;2023-02-18T05:41:44;1001.7;;;6.1;69.3
57374;BME280;43964;53.890;25.340;2023-02-18T05:46:18;1001.7;;;6.1;69.4
57374;BME280;43964;53.890;25.340;2023-02-18T05:51:58;1001.7;;;6.2;69.6
57374;BME280;43964;53.890;25.340;2023-02-18T05:56:18;1001.7;;;6.2;69.7
57374;BME280;43964;53.890;25.340;2023-02-18T06:02:06;1001.7;;;6.2;69.8
57374;BME280;43964;53.890;25.340;2023-02-18T06:06:18;1001.7;;;6.2;69.8
57374;BME280;43964;53.890;25.340;2023-02-18T06:11:32;1001.7;;;6.2;69.7
57374;BME280;43964;53.890;25.340;2023-02-18T06:16:58;1001.7;;;6.3;69.6
57374;BME280;43964;53.890;25.340;2023-02-18T06:21:38;1001.7;;;6.3;69.6
57374;BME280;43964;53.890;25.340;2023-02-18T06:27:08;1001.7;;;6.3;69.5
57374;BME280;43964;53.890;25.340;2023-02-18T06:31:44;1001.7;;;6.3;69.4
57374;BME280;43964;53.890;25.340;2023-02-18T06:36:18;1001.7;;;6.3;69.3
57374;BME280;43964;53.890;25.340;2023-02-18T06:41:58;1001.8;;;6.3;69.3
57374;BME280;43964;53.890;25.340;2023-02-18T06:46:18;1001.8;;;6.3;69.2
57374;BME280;43964;53.890;25.340;2023-02-18T06:51:54;1001.8;;;6.3;69.3
57374;BME280;43964;53.890;25.340;2023-02-18T06:56:50;1001.9;;;6.3;69.2
57374;BME280;43964;53.890;25.340;2023-02-18T07:01:28;1001.9;;;6.2;69.3
57374;BME280;43964;53.890;25.340;2023-02-18T07:06:30;1001.9;;;6.2;69.3
57374;BME280;43964;53.890;25.340;2023-02-18T07:11:30;1001.9;;;6.2;69.3
57374;BME280;43964;53.890;25.340;2023-02-18T07:17:04;1002;;;6.2;69.3
57374;BME280;43964;53.890;25.340;2023-02-18T07:21:44;1001.9;;;6.2;69.3
57374;BME280;43964;53.890;25.340;2023-02-18T07:27:04;1002;;;6.2;69.3
57374;BME280;43964;53.890;25.340;2023-02-18T07:31:56;1002;;;6.2;69.2
57374;BME280;43964;53.890;25.340;2023-02-18T07:36:34;1002;;;6.2;69.2
57374;BME280;43964;53.890;25.340;2023-02-18T07:42:04;1002;;;6.2;69.2
57374;BME280;43964;53.890;25.340;2023-02-18T07:46:48;1002;;;6.3;69.2
57374;BME280;43964;53.890;25.340;2023-02-18T07:51:18;1002.1;;;6.3;69.1
57374;BME280;43964;53.890;25.340;2023-02-18T07:56:58;1002;;;6.5;69
57374;BME280;43964;53.890;25.340;2023-02-18T08:01:30;1002;;;6.7;68.7
57374;BME280;43964;53.890;25.340;2023-02-18T08:07:06;1002;;;6.7;68.5
57374;BME280;43964;53.890;25.340;2023-02-18T08:11:33;1002;;;6.7;68.4
57374;BME280;43964;53.890;25.340;2023-02-18T08:16:18;1002.2;;;6.7;68.3
57374;BME280;43964;53.890;25.340;2023-02-18T08:21:44;1002.3;;;6.7;68.3
57374;BME280;43964;53.890;25.340;2023-02-18T08:26:30;1002.2;;;6.6;68.2
57374;BME280;43964;53.890;25.340;2023-02-18T08:32:06;1002.3;;;6.6;68
57374;BME280;43964;53.890;25.340;2023-02-18T08:36:18;1002.3;;;6.7;67.9
57374;BME280;43964;53.890;25.340;2023-02-18T08:41:48;1002.2;;;6.8;67.8
57374;BME280;43964;53.890;25.340;2023-02-18T08:46:58;1002.3;;;6.7;67.7
57374;BME280;43964;53.890;25.340;2023-02-18T08:51:30;1002.4;;;6.7;67.7
57374;BME280;43964;53.890;25.340;2023-02-18T08:56:38;1002.4;;;6.8;67.6
57374;BME280;43964;53.890;25.340;2023-02-18T09:01:44;1002.4;;;6.8;67.6
57374;BME280;43964;53.890;25.340;2023-02-18T09:06:24;1002.5;;;6.8;67.6
57374;BME280;43964;53.890;25.340;2023-02-18T09:11:56;1002.6;;;6.8;67.5
57374;BME280;43964;53.890;25.340;2023-02-18T09:16:30;1002.5;;;6.8;67.4
57374;BME280;43964;53.890;25.340;2023-02-18T09:22:04;1002.5;;;6.8;67.3
57374;BME280;43964;53.890;25.340;2023-02-18T09:26:30;1002.5;;;6.8;67.1
57374;BME280;43964;53.890;25.340;2023-02-18T09:31:24;1002.6;;;6.9;67
57374;BME280;43964;53.890;25.340;2023-02-18T09:36:58;1002.7;;;6.9;66.9
57374;BME280;43964;53.890;25.340;2023-02-18T09:41:21;1002.8;;;6.9;66.7
57374;BME280;43964;53.890;25.340;2023-02-18T09:47:08;1002.8;;;6.9;66.5
57374;BME280;43964;53.890;25.340;2023-02-18T09:51:50;1002.8;;;7;66.5
57374;BME280;43964;53.890;25.340;2023-02-18T09:57:06;1002.8;;;7.2;66.3
57374;BME280;43964;53.890;25.340;2023-02-18T10:01:58;1002.9;;;7.4;66
57374;BME280;43964;53.890;25.340;2023-02-18T10:06:19;1002.9;;;7.5;65.6
57374;BME280;43964;53.890;25.340;2023-02-18T10:12:10;1003;;;7.6;65.3
57374;BME280;43964;53.890;25.340;2023-02-18T10:16:44;1003;;;7.7;65.1
57374;BME280;43964;53.890;25.340;2023-02-18T10:22:06;1003;;;7.8;64.7
57374;BME280;43964;53.890;25.340;2023-02-18T10:26:56;1003;;;7.9;64.3
57374;BME280;43964;53.890;25.340;2023-02-18T10:31:44;1003;;;7.8;64.1
57374;BME280;43964;53.890;25.340;2023-02-18T10:37:05;1003.1;;;7.8;64.2
57374;BME280;43964;53.890;25.340;2023-02-18T10:41:33;1003.1;;;7.9;64.2
57374;BME280;43964;53.890;25.340;2023-02-18T10:47:10;1003.3;;;7.8;64.4
57374;BME280;43964;53.890;25.340;2023-02-18T10:51:56;1003.3;;;7.7;64.5
57374;BME280;43964;53.890;25.340;2023-02-18T10:56:35;1003.3;;;7.6;64.6
57374;BME280;43964;53.890;25.340;2023-02-18T11:02:09;1003.4;;;7.8;64.5
57374;BME280;43964;53.890;25.340;2023-02-18T11:06:19;1003.4;;;7.9;64.4
57374;BME280;43964;53.890;25.340;2023-02-18T11:12:05;1003.4;;;7.9;64.4
57374;BME280;43964;53.890;25.340;2023-02-18T11:16:44;1003.4;;;7.9;64.2
57374;BME280;43964;53.890;25.340;2023-02-18T11:21:20;1003.5;;;7.8;63.7
57374;BME280;43964;53.890;25.340;2023-02-18T11:27:06;1003.5;;;7.6;63.6
57374;BME280;43964;53.890;25.340;2023-02-18T11:32:04;1003.6;;;7.4;63.8
57374;BME280;43964;53.890;25.340;2023-02-18T11:37:07;1003.7;;;7.2;64.3
57374;BME280;43964;53.890;25.340;2023-02-18T11:41:19;1003.6;;;7.3;64.3
57374;BME280;43964;53.890;25.340;2023-02-18T11:46:19;1003.7;;;7.4;64.2
57374;BME280;43964;53.890;25.340;2023-02-18T11:51:50;1003.6;;;7.4;64
57374;BME280;43964;53.890;25.340;2023-02-18T11:56:44;1003.6;;;7.4;63.8
57374;BME280;43964;53.890;25.340;2023-02-18T12:02:05;1003.7;;;7.4;63.7
57374;BME280;43964;53.890;25.340;2023-02-18T12:07:00;1003.7;;;7.5;63.8
57374;BME280;43964;53.890;25.340;2023-02-18T12:11:20;1003.7;;;7.4;63.9
57374;BME280;43964;53.890;25.340;2023-02-18T12:17:13;1003.8;;;7.2;63.9
57374;BME280;43964;53.890;25.340;2023-02-18T12:21:47;1003.8;;;7.3;63.9
57374;BME280;43964;53.890;25.340;2023-02-18T12:27:05;1003.8;;;7.2;63.9
57374;BME280;43964;53.890;25.340;2023-02-18T12:32:14;1003.7;;;7.1;64.1
57374;BME280;43964;53.890;25.340;2023-02-18T12:36:21;1003.8;;;7;64.2
57374;BME280;43964;53.890;25.340;2023-02-18T12:42:08;1003.8;;;7;64.2
57374;BME280;43964;53.890;25.340;2023-02-18T12:46:49;1003.9;;;6.9;64.2
57374;BME280;43964;53.890;25.340;2023-02-18T12:52:07;1004;;;6.8;64.3
57374;BME280;43964;53.890;25.340;2023-02-18T12:57:00;1004;;;6.9;64.3
57374;BME280;43964;53.890;25.340;2023-02-18T13:01:21;1004;;;7;64.3
57374;BME280;43964;53.890;25.340;2023-02-18T13:07:38;1004;;;7;64.1
57374;BME280;43964;53.890;25.340;2023-02-18T13:11:35;1004.1;;;7;64.1
57374;BME280;43964;53.890;25.340;2023-02-18T13:16:50;1004.1;;;7;63.9
57374;BME280;43964;53.890;25.340;2023-02-18T13:21:57;1004.3;;;6.9;63.9
57374;BME280;43964;53.890;25.340;2023-02-18T13:26:36;1004.4;;;6.8;64.1
57374;BME280;43964;53.890;25.340;2023-02-18T13:32:06;1004.4;;;6.7;64.4
57374;BME280;43964;53.890;25.340;2023-02-18T13:36:21;1004.4;;;6.6;64.5
57374;BME280;43964;53.890;25.340;2023-02-18T13:42:21;1004.4;;;6.6;64.6
57374;BME280;43964;53.890;25.340;2023-02-18T13:46:47;1004.3;;;6.7;64.5
57374;BME280;43964;53.890;25.340;2023-02-18T13:51:30;1004.5;;;6.7;64.4
57374;BME280;43964;53.890;25.340;2023-02-18T13:57:04;1004.5;;;6.7;64.5
57374;BME280;43964;53.890;25.340;2023-02-18T14:01:45;1004.5;;;6.7;64.5
57374;BME280;43964;53.890;25.340;2023-02-18T14:08:11;1004.5;;;6.6;64.6
57374;BME280;43964;53.890;25.340;2023-02-18T14:11:56;1004.4;;;6.7;64.6
57374;BME280;43964;53.890;25.340;2023-02-18T14:16:18;1004.5;;;6.7;64.5
57374;BME280;43964;53.890;25.340;2023-02-18T14:22:43;1004.4;;;6.8;64.2
57374;BME280;43964;53.890;25.340;2023-02-18T14:26:56;1004.5;;;6.7;63.6
57374;BME280;43964;53.890;25.340;2023-02-18T14:31:50;1004.5;;;6.8;63.4
57374;BME280;43964;53.890;25.340;2023-02-18T14:37:10;1004.6;;;6.8;63.4
57374;BME280;43964;53.890;25.340;2023-02-18T14:41:35;1004.5;;;6.8;63.2
57374;BME280;43964;53.890;25.340;2023-02-18T14:47:04;1004.5;;;6.7;63.1
57374;BME280;43964;53.890;25.340;2023-02-18T14:51:46;1004.6;;;6.7;63
57374;BME280;43964;53.890;25.340;2023-02-18T14:56:53;1004.5;;;6.7;62.9
57374;BME280;43964;53.890;25.340;2023-02-18T15:02:08;1004.5;;;6.6;62.3
57374;BME280;43964;53.890;25.340;2023-02-18T15:06:24;1004.5;;;6.5;61.9
57374;BME280;43964;53.890;25.340;2023-02-18T15:12:04;1004.5;;;6.4;61.2
57374;BME280;43964;53.890;25.340;2023-02-18T15:16:44;1004.6;;;6.3;60.7
57374;BME280;43964;53.890;25.340;2023-02-18T15:21:50;1004.6;;;6.3;60.4
57374;BME280;43964;53.890;25.340;2023-02-18T15:27:10;1004.7;;;6.2;59.9
57374;BME280;43964;53.890;25.340;2023-02-18T15:31:16;1004.8;;;6.1;59.9
57374;BME280;43964;53.890;25.340;2023-02-18T15:37:09;1004.9;;;6.1;59.6
57374;BME280;43964;53.890;25.340;2023-02-18T15:41:44;1005;;;6;59.7
57374;BME280;43964;53.890;25.340;2023-02-18T15:46:50;1005;;;6;59.7
57374;BME280;43964;53.890;25.340;2023-02-18T15:51:58;1005.1;;;6;59.5
57374;BME280;43964;53.890;25.340;2023-02-18T15:56:36;1005.1;;;6;59.4
57374;BME280;43964;53.890;25.340;2023-02-18T16:01:46;1005.1;;;6;58.8
57374;BME280;43964;53.890;25.340;2023-02-18T16:06:44;1005.2;;;6;58.7
57374;BME280;43964;53.890;25.340;2023-02-18T16:11:36;1005.2;;;6;58.5
57374;BME280;43964;53.890;25.340;2023-02-18T16:17:07;1005.3;;;6;58
57374;BME280;43964;53.890;25.340;2023-02-18T16:21:22;1005.5;;;6;57.9
57374;BME280;43964;53.890;25.340;2023-02-18T16:27:07;1005.6;;;6;57.9
57374;BME280;43964;53.890;25.340;2023-02-18T16:31:18;1005.6;;;5.8;58
57374;BME280;43964;53.890;25.340;2023-02-18T16:36:38;1005.6;;;5.7;57.9
57374;BME280;43964;53.890;25.340;2023-02-18T16:42:07;1005.7;;;5.6;57.9
57374;BME280;43964;53.890;25.340;2023-02-18T16:46:36;1005.7;;;5.5;58
57374;BME280;43964;53.890;25.340;2023-02-18T16:52:06;1005.7;;;5.5;57.9
57374;BME280;43964;53.890;25.340;2023-02-18T16:56:19;1005.7;;;5.4;57.7
57374;BME280;43964;53.890;25.340;2023-02-18T17:01:48;1005.8;;;5.3;57.6
57374;BME280;43964;53.890;25.340;2023-02-18T17:07:07;1005.8;;;5.3;57.6
57374;BME280;43964;53.890;25.340;2023-02-18T17:11:30;1005.8;;;5.3;57.5
57374;BME280;43964;53.890;25.340;2023-02-18T17:17:08;1005.9;;;5.3;57.6
57374;BME280;43964;53.890;25.340;2023-02-18T17:21:44;1005.9;;;5.3;57.5
57374;BME280;43964;53.890;25.340;2023-02-18T17:26:32;1005.9;;;5.3;57.6
57374;BME280;43964;53.890;25.340;2023-02-18T17:32:06;1005.9;;;5.2;57.5
57374;BME280;43964;53.890;25.340;2023-02-18T17:36:18;1006;;;5.2;57.5
57374;BME280;43964;53.890;25.340;2023-02-18T17:42:04;1006;;;5.2;57.4
57374;BME280;43964;53.890;25.340;2023-02-18T17:46:19;1006;;;5.2;57.3
57374;BME280;43964;53.890;25.340;2023-02-18T17:51:50;1006;;;5.2;57
57374;BME280;43964;53.890;25.340;2023-02-18T17:57:08;1006.1;;;5.2;56.6
57374;BME280;43964;53.890;25.340;2023-02-18T18:01:50;1006.1;;;5.2;56.4
57374;BME280;43964;53.890;25.340;2023-02-18T18:07:04;1006.2;;;5.2;56.2
57374;BME280;43964;53.890;25.340;2023-02-18T18:11:46;1006.2;;;5.3;56.1
57374;BME280;43964;53.890;25.340;2023-02-18T18:16:48;1006.4;;;5.4;56.1
57374;BME280;43964;53.890;25.340;2023-02-18T18:21:52;1006.5;;;5.4;56.2
57374;BME280;43964;53.890;25.340;2023-02-18T18:26:18;1006.5;;;5.3;56.5
57374;BME280;43964;53.890;25.340;2023-02-18T18:31:42;1006.5;;;5.3;56.7
57374;BME280;43964;53.890;25.340;2023-02-18T18:36:50;1006.5;;;5.2;57
57374;BME280;43964;53.890;25.340;2023-02-18T18:42:08;1006.5;;;5.1;57.1
57374;BME280;43964;53.890;25.340;2023-02-18T18:46:54;1006.5;;;5;57.2
57374;BME280;43964;53.890;25.340;2023-02-18T18:51:44;1006.5;;;4.9;57.2
57374;BME280;43964;53.890;25.340;2023-02-18T18:56:46;1006.5;;;4.9;57.2
57374;BME280;43964;53.890;25.340;2023-02-18T19:01:50;1006.5;;;4.9;57.2
57374;BME280;43964;53.890;25.340;2023-02-18T19:07:04;1006.6;;;4.9;57.2
57374;BME280;43964;53.890;25.340;2023-02-18T19:12:07;1006.6;;;4.9;57.2
57374;BME280;43964;53.890;25.340;2023-02-18T19:16:24;1006.7;;;4.9;57.2
57374;BME280;43964;53.890;25.340;2023-02-18T19:21:18;1006.8;;;4.9;57.1
57374;BME280;43964;53.890;25.340;2023-02-18T19:26:50;1006.8;;;4.9;57.1
57374;BME280;43964;53.890;25.340;2023-02-18T19:32:06;1006.8;;;4.9;57.1
57374;BME280;43964;53.890;25.340;2023-02-18T19:36:52;1006.9;;;5;57.1
57374;BME280;43964;53.890;25.340;2023-02-18T19:41:32;1006.9;;;5;57.1
57374;BME280;43964;53.890;25.340;2023-02-18T19:46:30;1007;;;5.1;57
57374;BME280;43964;53.890;25.340;2023-02-18T19:52:06;1007.1;;;5.1;57
57374;BME280;43964;53.890;25.340;2023-02-18T19:57:04;1007.1;;;5.2;56.9
57374;BME280;43964;53.890;25.340;2023-02-18T20:01:52;1007.1;;;5.1;56.9
57374;BME280;43964;53.890;25.340;2023-02-18T20:06:30;1007.2;;;5.1;56.9
57374;BME280;43964;53.890;25.340;2023-02-18T20:11:44;1007.3;;;5.1;57
57374;BME280;43964;53.890;25.340;2023-02-18T20:16:54;1007.4;;;5.1;57.1
57374;BME280;43964;53.890;25.340;2023-02-18T20:22:06;1007.4;;;5.2;57.1
57374;BME280;43964;53.890;25.340;2023-02-18T20:26:54;1007.4;;;5.2;57.1
57374;BME280;43964;53.890;25.340;2023-02-18T20:31:18;1007.5;;;5.2;57.1
57374;BME280;43964;53.890;25.340;2023-02-18T20:36:44;1007.5;;;5.2;57.2
57374;BME280;43964;53.890;25.340;2023-02-18T20:41:50;1007.5;;;5.3;57.1
57374;BME280;43964;53.890;25.340;2023-02-18T20:47:06;1007.5;;;5.2;57.2
57374;BME280;43964;53.890;25.340;2023-02-18T20:51:52;1007.5;;;5.2;57.3
57374;BME280;43964;53.890;25.340;2023-02-18T20:56:18;1007.5;;;5.2;57.3
57374;BME280;43964;53.890;25.340;2023-02-18T21:01:42;1007.6;;;5.2;57.4
57374;BME280;43964;53.890;25.340;2023-02-18T21:06:54;1007.7;;;5.2;57.5
57374;BME280;43964;53.890;25.340;2023-02-18T21:12:08;1007.7;;;5.1;57.6
57374;BME280;43964;53.890;25.340;2023-02-18T21:16:54;1007.8;;;5.1;57.6
57374;BME280;43964;53.890;25.340;2023-02-18T21:21:40;1007.9;;;5;57.8
57374;BME280;43964;53.890;25.340;2023-02-18T21:26:42;1007.9;;;5;57.8
57374;BME280;43964;53.890;25.340;2023-02-18T21:31:52;1008;;;4.9;57.9
57374;BME280;43964;53.890;25.340;2023-02-18T21:37:04;1008;;;4.8;58
57374;BME280;43964;53.890;25.340;2023-02-18T21:41:52;1008;;;4.7;58.3
57374;BME280;43964;53.890;25.340;2023-02-18T21:47:06;1008;;;4.6;58.5
57374;BME280;43964;53.890;25.340;2023-02-18T21:51:44;1008;;;4.5;58.7
57374;BME280;43964;53.890;25.340;2023-02-18T21:56:54;1008.1;;;4.5;58.8
57374;BME280;43964;53.890;25.340;2023-02-18T22:02:04;1008.1;;;4.4;59
57374;BME280;43964;53.890;25.340;2023-02-18T22:06:50;1008.1;;;4.3;59.1
57374;BME280;43964;53.890;25.340;2023-02-18T22:11:30;1008.1;;;4.2;59.3
57374;BME280;43964;53.890;25.340;2023-02-18T22:16:42;1008.2;;;4.1;59.4
57374;BME280;43964;53.890;25.340;2023-02-18T22:21:52;1008.2;;;4;59.5
57374;BME280;43964;53.890;25.340;2023-02-18T22:27:04;1008.2;;;4.1;59.5
57374;BME280;43964;53.890;25.340;2023-02-18T22:31:52;1008.2;;;4.1;59.5
57374;BME280;43964;53.890;25.340;2023-02-18T22:36:18;1008.2;;;4.2;59.5
57374;BME280;43964;53.890;25.340;2023-02-18T22:41:32;1008.1;;;4.3;59.7
57374;BME280;43964;53.890;25.340;2023-02-18T22:46:18;1008.2;;;4.3;59.8
57374;BME280;43964;53.890;25.340;2023-02-18T22:52:06;1008.3;;;4.3;59.8
57374;BME280;43964;53.890;25.340;2023-02-18T22:56:51;1008.4;;;4.3;59.9
57374;BME280;43964;53.890;25.340;2023-02-18T23:01:37;1008.4;;;4.4;60
57374;BME280;43964;53.890;25.340;2023-02-18T23:06:32;1008.4;;;4.4;60
57374;BME280;43964;53.890;25.340;2023-02-18T23:11:18;1008.4;;;4.2;60.2
57374;BME280;43964;53.890;25.340;2023-02-18T23:17:04;1008.5;;;4.1;60.3
57374;BME280;43964;53.890;25.340;2023-02-18T23:21:52;1008.5;;;4;60.5
57374;BME280;43964;53.890;25.340;2023-02-18T23:26:18;1008.6;;;3.9;60.6
57374;BME280;43964;53.890;25.340;2023-02-18T23:31:18;1008.6;;;3.8;60.8
57374;BME280;43964;53.890;25.340;2023-02-18T23:36:30;1008.5;;;3.8;61.1
57374;BME280;43964;53.890;25.340;2023-02-18T23:42:06;1008.6;;;3.7;61.4
57374;BME280;43964;53.890;25.340;2023-02-18T23:46:52;1008.6;;;3.6;61.7
57374;BME280;43964;53.890;25.340;2023-02-18T23:51:50;1008.6;;;3.6;61.9
57374;BME280;43964;53.890;25.340;2023-02-18T23:56:56;1008.7;;;3.6;62.1
